Time;durP1;ratioP1;P1;durP2;ratioP2;P2;SDS_P1;SDS_P2;PMS_P1;PMS_P2;Temp;Humidity;BMP_temperature;BMP_pressure;BME280_temperature;BME280_humidity;BME280_pressure;Samples;Min_cycle;Max_cycle;Signal;HPM_P1;HPM_P2
2021/09/24 00:01:12;;;;;;;21.77;12.40;;;;;;;13.76;75.52;96455.97;5089663;28;20059;-72
2021/09/24 00:03:38;;;;;;;18.25;12.20;;;;;;;13.72;75.49;96433.91;5090068;28;20070;-72
2021/09/24 00:06:05;;;;;;;16.55;10.98;;;;;;;13.67;75.64;96436.88;5090028;28;20059;-72
2021/09/24 00:08:32;;;;;;;17.88;11.48;;;;;;;13.64;75.87;96432.09;5090034;28;20051;-71
2021/09/24 00:10:59;;;;;;;18.25;10.90;;;;;;;13.67;75.76;96430.59;5090539;28;20059;-71
2021/09/24 00:13:26;;;;;;;18.77;12.18;;;;;;;13.65;75.74;96439.16;5088846;28;20055;-72
2021/09/24 00:15:53;;;;;;;17.08;10.65;;;;;;;13.66;75.84;96435.28;5090869;28;20051;-72
2021/09/24 00:18:21;;;;;;;17.38;10.77;;;;;;;13.67;75.41;96436.88;5089238;28;20059;-72
2021/09/24 00:20:48;;;;;;;36.08;11.75;;;;;;;13.73;75.44;96453.88;5090482;28;20056;-72
2021/09/24 00:23:14;;;;;;;21.92;12.77;;;;;;;13.76;75.67;96450.47;5089063;28;20122;-72
2021/09/24 00:25:41;;;;;;;18.10;11.32;;;;;;;13.77;75.33;96450.13;5090241;28;20727;-72
2021/09/24 00:28:08;;;;;;;19.15;11.10;;;;;;;13.80;74.96;96452.22;5089451;28;20565;-72
2021/09/24 00:30:35;;;;;;;16.58;11.80;;;;;;;13.83;75.06;96454.28;5089809;28;20502;-72
2021/09/24 00:33:02;;;;;;;17.58;10.85;;;;;;;13.82;75.10;96455.41;5089909;28;20059;-72
2021/09/24 00:35:30;;;;;;;15.60;11.15;;;;;;;13.81;74.81;96448.34;5089451;28;20048;-72
2021/09/24 00:37:56;;;;;;;17.65;11.07;;;;;;;13.77;74.95;96441.13;5090141;28;20063;-72
2021/09/24 00:40:23;;;;;;;16.27;11.05;;;;;;;13.74;74.99;96442.63;5088682;28;20529;-72
2021/09/24 00:42:49;;;;;;;17.08;11.57;;;;;;;13.71;75.36;96442.47;5090189;28;20040;-72
2021/09/24 00:45:15;;;;;;;16.48;11.15;;;;;;;13.69;75.15;96442.81;5088468;28;20051;-72
2021/09/24 00:47:42;;;;;;;17.02;11.52;;;;;;;13.70;75.24;96446.34;5089971;28;20056;-72
2021/09/24 00:50:10;;;;;;;16.13;10.82;;;;;;;13.69;75.39;96445.56;5088588;28;20044;-72
2021/09/24 00:52:38;;;;;;;16.77;10.57;;;;;;;13.70;75.65;96447.16;5089231;28;20060;-72
2021/09/24 00:55:06;;;;;;;16.30;11.63;;;;;;;13.72;75.48;96452.28;5088493;28;20048;-72
2021/09/24 00:57:33;;;;;;;15.88;10.40;;;;;;;13.71;75.70;96454.22;5088981;28;20102;-72
2021/09/24 00:59:59;;;;;;;16.83;10.68;;;;;;;13.67;75.43;96452.50;5089713;28;20070;-71
2021/09/24 01:02:26;;;;;;;15.30;10.73;;;;;;;13.67;75.54;96455.22;5088245;28;20055;-71
2021/09/24 01:04:52;;;;;;;18.05;10.82;;;;;;;13.70;75.65;96452.63;5089876;28;20058;-72
2021/09/24 01:07:19;;;;;;;20.27;10.73;;;;;;;13.70;75.67;96455.38;5087821;28;20518;-72
2021/09/24 01:09:46;;;;;;;18.48;10.57;;;;;;;13.67;75.59;96453.28;5089047;28;20048;-72
2021/09/24 01:12:13;;;;;;;18.55;11.00;;;;;;;13.66;75.48;96457.16;5088314;28;20051;-71
2021/09/24 01:14:40;;;;;;;15.95;11.25;;;;;;;13.62;75.49;96453.50;5089386;28;20052;-72
2021/09/24 01:17:06;;;;;;;17.88;11.20;;;;;;;13.58;76.03;96449.84;5088525;28;20045;-71
2021/09/24 01:19:33;;;;;;;17.85;11.90;;;;;;;13.56;76.09;96446.63;5088807;28;20067;-72
2021/09/24 01:22:01;;;;;;;18.98;11.50;;;;;;;13.51;76.31;96444.88;5088771;28;20498;-71
2021/09/24 01:24:28;;;;;;;16.83;11.10;;;;;;;13.49;76.18;96440.91;5088547;28;20048;-72
2021/09/24 01:26:56;;;;;;;16.10;11.00;;;;;;;13.48;76.62;96440.09;5089061;28;20047;-72
2021/09/24 01:29:26;;;;;;;18.85;11.88;;;;;;;13.49;76.59;96435.44;5087819;28;20064;-72
2021/09/24 01:31:52;;;;;;;18.35;11.52;;;;;;;13.49;76.45;96443.63;5089424;28;20051;-72
2021/09/24 01:34:19;;;;;;;19.55;12.25;;;;;;;13.49;76.32;96430.75;5087592;28;20054;-72
2021/09/24 01:36:46;;;;;;;18.17;11.90;;;;;;;13.49;76.44;96425.28;5088927;28;20055;-71
2021/09/24 01:39:14;;;;;;;17.55;12.30;;;;;;;13.46;76.56;96428.69;5087896;28;20055;-72
2021/09/24 01:41:45;;;;;;;16.88;11.70;;;;;;;13.45;76.45;96429.03;5088255;28;20051;-72
2021/09/24 01:44:12;;;;;;;20.17;11.60;;;;;;;13.44;76.81;96424.69;5088476;28;20623;-72
2021/09/24 01:46:39;;;;;;;20.38;11.95;;;;;;;13.44;76.49;96428.22;5087675;28;20056;-71
2021/09/24 01:49:06;;;;;;;16.33;11.40;;;;;;;13.40;76.64;96426.47;5085548;28;20044;-71
2021/09/24 01:51:33;;;;;;;20.10;12.07;;;;;;;13.28;77.14;96425.28;5087408;28;20048;-71
2021/09/24 01:54:00;;;;;;;19.23;12.00;;;;;;;13.25;77.21;96425.94;5088193;28;20047;-72
2021/09/24 01:56:27;;;;;;;18.88;11.90;;;;;;;13.24;77.65;96427.09;5087247;28;20051;-72
2021/09/24 01:58:54;;;;;;;16.17;11.63;;;;;;;13.26;77.82;96427.56;5088394;28;20052;-72
2021/09/24 02:01:20;;;;;;;17.15;11.20;;;;;;;13.28;77.90;96433.50;5087330;28;20558;-71
2021/09/24 02:03:47;;;;;;;18.77;12.02;;;;;;;13.30;77.48;96433.94;5088701;28;20511;-72
2021/09/24 02:06:13;;;;;;;18.63;11.68;;;;;;;13.28;77.64;96436.22;5088243;28;20044;-71
2021/09/24 02:08:40;;;;;;;17.85;11.07;;;;;;;13.26;77.40;96441.25;5087881;28;20056;-72
2021/09/24 02:11:10;;;;;;;17.60;11.23;;;;;;;13.22;77.41;96442.25;5087835;28;20056;-72
2021/09/24 02:13:38;;;;;;;17.58;11.43;;;;;;;13.23;77.77;96450.09;5087460;28;20048;-72
2021/09/24 02:16:05;;;;;;;20.48;12.85;;;;;;;13.24;77.38;96448.97;5088028;28;20051;-72
2021/09/24 02:18:32;;;;;;;17.77;12.10;;;;;;;13.26;77.46;96449.44;5087210;28;20067;-71
2021/09/24 02:20:58;;;;;;;19.05;11.82;;;;;;;13.22;77.26;96453.97;5087907;28;20067;-72
2021/09/24 02:23:25;;;;;;;17.92;11.45;;;;;;;13.22;77.16;96448.50;5086809;28;20566;-72
2021/09/24 02:25:51;;;;;;;19.55;11.80;;;;;;;13.23;77.37;96452.03;5088013;28;20534;-71
2021/09/24 02:28:18;;;;;;;15.75;10.70;;;;;;;13.22;77.40;96447.72;5086643;28;20681;-71
2021/09/24 02:30:46;;;;;;;17.80;10.82;;;;;;;13.22;77.23;96453.97;5087413;28;20067;-72
2021/09/24 02:33:12;;;;;;;18.52;11.73;;;;;;;13.23;77.10;96454.78;5087144;28;20055;-71
2021/09/24 02:35:39;;;;;;;17.17;11.23;;;;;;;13.21;77.31;96452.38;5087281;28;20044;-72
2021/09/24 02:38:06;;;;;;;19.42;11.18;;;;;;;13.22;76.96;96462.19;5087721;28;20055;-72
2021/09/24 02:40:32;;;;;;;16.73;11.52;;;;;;;13.20;77.07;96458.94;5086809;28;20499;-72
2021/09/24 02:42:59;;;;;;;16.58;10.93;;;;;;;13.16;77.37;96460.75;5088044;28;20912;-72
2021/09/24 02:45:26;;;;;;;16.33;11.52;;;;;;;13.15;77.19;96464.59;5086100;28;20071;-72
2021/09/24 02:47:54;;;;;;;19.13;10.80;;;;;;;13.11;77.23;96463.66;5087948;28;20056;-72
2021/09/24 02:50:20;;;;;;;19.25;11.43;;;;;;;13.09;77.41;96460.44;5086328;28;20063;-71
2021/09/24 02:52:47;;;;;;;16.58;9.82;;;;;;;13.05;77.78;96459.53;5087419;28;20499;-71
2021/09/24 02:55:14;;;;;;;19.27;12.32;;;;;;;12.99;77.94;96456.16;5087199;28;20048;-72
2021/09/24 02:57:41;;;;;;;18.10;10.48;;;;;;;12.99;78.10;96460.84;5087148;28;20043;-71
2021/09/24 03:00:09;;;;;;;17.77;10.95;;;;;;;12.97;77.65;96460.38;5087104;28;20507;-71
2021/09/24 03:02:36;;;;;;;17.38;11.27;;;;;;;12.97;77.81;96460.38;5087188;28;20617;-71
2021/09/24 03:05:04;;;;;;;16.40;10.20;;;;;;;12.96;77.98;96461.50;5087355;28;20052;-72
2021/09/24 03:07:31;;;;;;;14.82;10.43;;;;;;;12.95;78.06;96454.44;5086918;28;20457;-71
2021/09/24 03:09:57;;;;;;;15.85;10.60;;;;;;;12.96;77.87;96456.84;5087606;28;20411;-72
2021/09/24 03:12:24;;;;;;;15.95;11.32;;;;;;;12.92;78.16;96455.91;5086556;28;20051;-72
2021/09/24 03:14:50;;;;;;;16.65;10.73;;;;;;;12.91;78.48;96453.50;5087101;28;20052;-71
2021/09/24 03:17:17;;;;;;;15.48;11.05;;;;;;;12.89;78.33;96450.28;5086774;28;20059;-72
2021/09/24 03:19:44;;;;;;;18.08;10.93;;;;;;;12.88;78.33;96443.22;5088779;28;20051;-71
2021/09/24 03:22:11;;;;;;;17.30;10.95;;;;;;;12.90;77.99;96444.50;5090789;28;20044;-72
2021/09/24 03:24:38;;;;;;;16.65;11.13;;;;;;;12.88;78.35;96445.94;5090647;28;20470;-71
2021/09/24 03:27:05;;;;;;;17.60;11.13;;;;;;;12.87;78.37;96450.63;5091308;28;20044;-72
2021/09/24 03:29:31;;;;;;;18.02;10.95;;;;;;;12.83;78.50;96448.88;5090801;28;20044;-72
2021/09/24 03:31:58;;;;;;;16.73;10.35;;;;;;;12.85;78.59;96449.34;5091617;28;20055;-72
2021/09/24 03:34:24;;;;;;;15.30;10.77;;;;;;;12.85;78.40;96446.63;5089530;28;20055;-71
2021/09/24 03:36:51;;;;;;;15.25;11.15;;;;;;;12.83;78.14;96457.06;5091163;28;20051;-71
2021/09/24 03:39:18;;;;;;;16.73;11.40;;;;;;;12.87;78.15;96452.56;5090170;28;20067;-71
2021/09/24 03:41:45;;;;;;;17.52;10.95;;;;;;;12.88;78.07;96454.16;5090864;28;20048;-71
2021/09/24 03:44:13;;;;;;;15.75;10.52;;;;;;;12.86;77.84;96456.41;5089902;28;20051;-72
2021/09/24 03:46:40;;;;;;;15.82;11.00;;;;;;;12.86;77.94;96453.69;5089901;28;20048;-72
2021/09/24 03:49:07;;;;;;;16.83;10.30;;;;;;;12.85;77.90;96450.16;5090370;28;20256;-72
2021/09/24 03:51:33;;;;;;;14.35;9.95;;;;;;;12.80;78.30;96462.06;5090129;28;20677;-71
2021/09/24 03:54:00;;;;;;;16.75;9.98;;;;;;;12.79;78.68;96462.41;5091005;28;20056;-71
2021/09/24 03:56:28;;;;;;;16.80;10.30;;;;;;;12.79;78.37;96455.00;5089804;28;20044;-71
2021/09/24 03:58:54;;;;;;;14.80;10.45;;;;;;;12.84;78.34;96458.66;5090801;28;20056;-72
2021/09/24 04:01:21;;;;;;;14.70;9.73;;;;;;;12.86;78.15;96476.34;5090313;28;20052;-72
2021/09/24 04:03:47;;;;;;;14.52;10.43;;;;;;;12.88;78.05;96478.75;5090901;28;20278;-72
2021/09/24 04:06:14;;;;;;;14.30;9.68;;;;;;;12.85;77.72;96477.47;5089651;28;20039;-72
2021/09/24 04:08:40;;;;;;;15.57;10.15;;;;;;;12.75;77.80;96484.13;5089963;28;20049;-71
2021/09/24 04:11:07;;;;;;;16.00;9.23;;;;;;;12.74;78.12;96473.53;5090238;28;20055;-72
2021/09/24 04:13:35;;;;;;;14.30;9.68;;;;;;;12.74;78.12;96477.06;5089892;28;20055;-72
2021/09/24 04:16:01;;;;;;;15.02;10.20;;;;;;;12.69;78.49;96469.03;5090617;28;20406;-71
2021/09/24 04:18:28;;;;;;;15.10;10.35;;;;;;;12.70;78.33;96464.38;5089703;28;20509;-71
2021/09/24 04:20:54;;;;;;;14.50;9.82;;;;;;;12.66;78.18;96463.44;5089839;28;20527;-72
2021/09/24 04:23:21;;;;;;;13.52;9.48;;;;;;;12.67;78.56;96465.81;5088755;28;20074;-72
2021/09/24 04:25:47;;;;;;;14.18;9.73;;;;;;;12.65;78.19;96465.34;5090330;28;20356;-72
2021/09/24 04:28:14;;;;;;;14.50;9.40;;;;;;;12.65;78.53;96467.28;5088910;28;20044;-71
2021/09/24 04:30:41;;;;;;;14.70;9.45;;;;;;;12.63;78.53;96462.13;5088633;28;20052;-71
2021/09/24 04:33:08;;;;;;;14.68;9.77;;;;;;;12.68;78.50;96472.09;5089120;28;20048;-72
2021/09/24 04:35:34;;;;;;;12.75;9.50;;;;;;;12.68;78.49;96467.41;5089192;28;20048;-71
2021/09/24 04:38:01;;;;;;;12.77;9.35;;;;;;;12.67;78.01;96465.81;5090330;28;20060;-72
2021/09/24 04:40:27;;;;;;;13.65;9.50;;;;;;;12.68;78.22;96478.34;5089007;28;20062;-72
2021/09/24 04:42:54;;;;;;;14.82;9.52;;;;;;;12.70;78.44;96473.38;5090628;28;20060;-72
2021/09/24 04:45:20;;;;;;;15.75;10.30;;;;;;;12.69;78.32;96477.25;5088341;28;20068;-72
2021/09/24 04:47:48;;;;;;;13.50;9.38;;;;;;;12.70;77.86;96473.38;5089552;28;20059;-72
2021/09/24 04:50:15;;;;;;;17.27;10.82;;;;;;;12.72;77.99;96482.03;5088699;28;20040;-71
2021/09/24 04:52:41;;;;;;;16.70;10.70;;;;;;;12.74;77.77;96484.47;5089368;28;20047;-72
2021/09/24 04:55:09;;;;;;;14.52;9.40;;;;;;;12.76;77.82;96485.72;5089076;28;20059;-72
2021/09/24 04:57:36;;;;;;;14.88;10.15;;;;;;;12.77;77.83;96489.25;5089018;28;20416;-72
2021/09/24 05:00:05;;;;;;;16.73;10.32;;;;;;;12.77;78.05;96484.59;5088529;28;20063;-71
2021/09/24 05:02:32;;;;;;;14.95;9.63;;;;;;;12.81;77.88;96490.19;5088596;28;20056;-71
2021/09/24 05:04:59;;;;;;;16.75;9.82;;;;;;;12.78;77.41;96488.91;5090019;28;20052;-72
2021/09/24 05:07:26;;;;;;;14.68;9.07;;;;;;;12.79;77.74;96490.53;5088068;28;20048;-72
2021/09/24 05:09:52;;;;;;;16.63;9.73;;;;;;;12.79;77.77;96500.66;5089579;28;20052;-72
2021/09/24 05:12:19;;;;;;;18.73;10.25;;;;;;;12.78;77.86;96497.09;5087965;28;20048;-73
2021/09/24 05:14:46;;;;;;;14.02;9.27;;;;;;;12.83;77.55;96506.25;5088289;28;20051;-72
2021/09/24 05:17:13;;;;;;;14.85;9.75;;;;;;;12.84;77.33;96507.84;5088085;28;20052;-71
2021/09/24 05:19:39;;;;;;;14.32;9.70;;;;;;;12.85;77.76;96512.22;5087094;28;20080;-71
2021/09/24 05:22:07;;;;;;;14.10;9.52;;;;;;;12.84;77.57;96508.66;5088691;28;20066;-71
2021/09/24 05:24:34;;;;;;;15.20;9.52;;;;;;;12.82;77.63;96515.59;5088499;28;20047;-71
2021/09/24 05:27:01;;;;;;;13.73;9.65;;;;;;;12.84;77.59;96513.31;5089009;28;20051;-71
2021/09/24 05:29:27;;;;;;;13.30;9.68;;;;;;;12.81;77.14;96520.25;5088116;28;20044;-71
2021/09/24 05:31:54;;;;;;;15.80;9.80;;;;;;;12.83;76.97;96528.13;5089483;28;20052;-71
2021/09/24 05:34:20;;;;;;;14.30;9.25;;;;;;;12.80;77.29;96518.66;5088904;28;20052;-70
2021/09/24 05:36:47;;;;;;;13.50;9.20;;;;;;;12.84;76.96;96524.25;5088909;28;20051;-70
2021/09/24 05:39:15;;;;;;;13.30;9.43;;;;;;;12.82;76.83;96521.84;5087979;28;20039;-71
2021/09/24 05:41:41;;;;;;;16.35;9.73;;;;;;;12.81;76.86;96525.72;5088156;28;20052;-70
2021/09/24 05:44:08;;;;;;;12.50;8.93;;;;;;;12.79;77.33;96523.31;5087693;28;20048;-70
2021/09/24 05:46:34;;;;;;;15.70;9.40;;;;;;;12.79;77.59;96523.31;5088144;28;20071;-70
2021/09/24 05:49:01;;;;;;;14.70;9.40;;;;;;;12.82;77.06;96523.78;5088011;28;20047;-71
2021/09/24 05:51:27;;;;;;;16.13;9.25;;;;;;;12.84;77.18;96521.53;5087839;28;20048;-70
2021/09/24 05:53:53;;;;;;;13.63;9.25;;;;;;;12.85;77.04;96525.88;5088570;28;20051;-70
2021/09/24 05:56:21;;;;;;;13.55;9.50;;;;;;;12.88;77.32;96522.47;5087562;28;20401;-70
2021/09/24 05:58:48;;;;;;;14.52;9.50;;;;;;;12.87;77.37;96529.06;5088218;28;20051;-70
2021/09/24 06:01:14;;;;;;;14.93;10.00;;;;;;;12.86;77.52;96516.53;5087287;28;20055;-70
2021/09/24 06:03:41;;;;;;;14.18;9.68;;;;;;;12.88;77.93;96520.53;5087992;28;20060;-70
2021/09/24 06:06:07;;;;;;;12.15;8.98;;;;;;;12.87;77.91;96531.81;5087269;28;20048;-70
2021/09/24 06:08:34;;;;;;;16.05;9.38;;;;;;;12.89;77.85;96526.81;5088014;28;20051;-71
2021/09/24 06:11:00;;;;;;;12.85;8.75;;;;;;;12.95;78.28;96525.50;5088295;28;20051;-70
2021/09/24 06:13:28;;;;;;;13.77;9.10;;;;;;;12.97;77.54;96528.72;5087412;28;20043;-70
2021/09/24 06:15:55;;;;;;;16.38;8.23;;;;;;;13.01;77.69;96530.47;5088056;28;20650;-70
2021/09/24 06:18:22;;;;;;;16.40;8.65;;;;;;;13.03;78.24;96532.84;5086301;28;20545;-71
2021/09/24 06:20:48;;;;;;;14.98;9.00;;;;;;;13.08;77.75;96532.66;5087894;28;20047;-71
2021/09/24 06:23:15;;;;;;;12.95;8.35;;;;;;;13.12;77.76;96530.88;5087163;28;20052;-70
2021/09/24 06:25:41;;;;;;;15.65;8.63;;;;;;;13.19;77.46;96531.16;5087608;28;20048;-71
2021/09/24 06:28:07;;;;;;;12.15;8.23;;;;;;;13.27;77.42;96532.28;5086718;28;20067;-71
2021/09/24 06:30:36;;;;;;;11.48;8.35;;;;;;;13.26;77.36;96536.97;5087784;28;20044;-71
2021/09/24 06:33:02;;;;;;;13.98;8.35;;;;;;;13.34;77.08;96529.03;5087192;28;20040;-71
2021/09/24 06:35:29;;;;;;;11.85;8.30;;;;;;;13.39;77.12;96531.56;5087433;28;20055;-71
2021/09/24 06:37:55;;;;;;;12.90;7.65;;;;;;;13.47;76.80;96537.00;5088079;28;20051;-71
2021/09/24 06:40:21;;;;;;;12.65;8.35;;;;;;;13.53;76.46;96530.19;5086670;28;20048;-71
2021/09/24 06:42:48;;;;;;;13.50;8.43;;;;;;;13.59;75.83;96539.00;5087881;28;20059;-71
2021/09/24 06:45:14;;;;;;;10.45;7.47;;;;;;;13.67;75.89;96538.13;5086536;28;20043;-71
2021/09/24 06:47:43;;;;;;;14.07;7.80;;;;;;;13.76;75.84;96538.84;5087803;28;20748;-71
2021/09/24 06:50:10;;;;;;;12.07;8.55;;;;;;;13.86;75.72;96537.66;5086485;28;20047;-71
2021/09/24 06:52:37;;;;;;;13.43;7.30;;;;;;;13.96;75.19;96536.47;5087468;28;20295;-71
2021/09/24 06:55:04;;;;;;;14.23;8.45;;;;;;;14.09;75.77;96540.84;5085965;28;20448;-71
2021/09/24 06:57:31;;;;;;;11.95;7.25;;;;;;;14.26;73.63;96546.16;5087207;28;20498;-71
2021/09/24 06:59:57;;;;;;;10.65;7.10;;;;;;;14.60;72.78;96547.78;5087711;28;20051;-71
2021/09/24 07:02:24;;;;;;;11.63;7.75;;;;;;;14.84;71.38;96544.28;5086370;28;20056;-71
2021/09/24 07:04:51;;;;;;;10.30;7.03;;;;;;;14.95;71.01;96549.34;5087820;28;20048;-71
2021/09/24 07:07:18;;;;;;;9.57;6.90;;;;;;;15.07;70.84;96555.63;5086365;28;20052;-71
2021/09/24 07:09:44;;;;;;;10.77;6.93;;;;;;;15.61;69.17;96560.06;5087301;28;20059;-71
2021/09/24 07:12:11;;;;;;;10.68;6.75;;;;;;;16.33;66.39;96563.78;5086389;28;20759;-71
2021/09/24 07:14:37;;;;;;;12.00;6.07;;;;;;;16.99;63.36;96561.63;5073300;28;20068;-71
2021/09/24 07:17:05;;;;;;;8.77;6.13;;;;;;;17.37;61.43;96556.28;5066205;28;20054;-71
2021/09/24 07:19:32;;;;;;;14.40;6.43;;;;;;;17.82;59.84;96560.50;5077505;28;20048;-71
2021/09/24 07:22:00;;;;;;;8.60;5.90;;;;;;;18.32;58.30;96561.53;5086838;28;20052;-71
2021/09/24 07:24:27;;;;;;;9.18;5.63;;;;;;;18.77;56.97;96566.38;5087240;28;20040;-71
2021/09/24 07:26:53;;;;;;;8.75;5.80;;;;;;;19.22;56.14;96564.03;5087482;28;20043;-70
2021/09/24 07:29:20;;;;;;;15.73;6.47;;;;;;;19.70;54.67;96567.97;5085811;28;20067;-72
2021/09/24 07:31:46;;;;;;;8.88;5.15;;;;;;;20.33;53.02;96566.47;5087533;28;20138;-71
2021/09/24 07:34:13;;;;;;;10.20;5.57;;;;;;;20.57;51.79;96571.53;5086531;28;20048;-71
2021/09/24 07:36:40;;;;;;;6.85;5.50;;;;;;;20.31;51.83;96568.81;5087593;28;20575;-73
2021/09/24 07:39:08;;;;;;;8.95;5.20;;;;;;;20.85;50.85;96576.56;5086205;28;20048;-71
2021/09/24 07:41:34;;;;;;;8.35;4.95;;;;;;;20.74;50.67;96569.34;5087012;28;20055;-71
2021/09/24 07:44:03;;;;;;;8.77;5.10;;;;;;;21.28;48.87;96581.72;5087057;28;20413;-72
2021/09/24 07:46:30;;;;;;;6.90;5.05;;;;;;;21.37;48.52;96579.47;5086212;28;20136;-72
2021/09/24 07:48:57;;;;;;;9.85;4.43;;;;;;;21.62;47.40;96583.25;5086715;28;20044;-72
2021/09/24 07:51:23;;;;;;;10.35;5.20;;;;;;;21.75;46.55;96582.94;5085854;28;20051;-72
2021/09/24 07:53:50;;;;;;;5.35;4.78;;;;;;;21.72;47.01;96583.72;5086673;28;20048;-72
2021/09/24 07:56:17;;;;;;;10.82;5.15;;;;;;;22.00;46.48;96594.19;5086056;28;20048;-71
2021/09/24 07:58:44;;;;;;;11.63;5.05;;;;;;;22.04;46.64;96579.16;5087207;28;20109;-72
2021/09/24 08:01:11;;;;;;;11.52;4.82;;;;;;;22.41;46.63;96583.75;5085658;28;20044;-71
2021/09/24 08:03:39;;;;;;;8.93;4.60;;;;;;;22.29;45.36;96584.06;5086984;28;20051;-72
2021/09/24 08:06:06;;;;;;;9.30;5.00;;;;;;;22.31;45.67;96581.72;5088594;28;20071;-71
2021/09/24 08:08:32;;;;;;;7.30;4.80;;;;;;;22.21;45.34;96591.56;5089658;28;20059;-72
2021/09/24 08:11:00;;;;;;;7.97;5.35;;;;;;;21.80;46.52;96588.09;5090462;28;20052;-72
2021/09/24 08:13:28;;;;;;;7.47;5.22;;;;;;;20.84;48.31;96585.28;5089594;28;20051;-72
2021/09/24 08:15:55;;;;;;;9.07;4.70;;;;;;;20.51;49.93;96584.09;5090207;28;20058;-72
2021/09/24 08:18:23;;;;;;;10.38;5.45;;;;;;;20.29;51.35;96582.19;5088831;28;20832;-71
2021/09/24 08:20:49;;;;;;;9.05;4.78;;;;;;;20.14;52.31;96583.97;5089871;28;20139;-71
2021/09/24 08:23:17;;;;;;;9.43;4.97;;;;;;;20.05;51.10;96578.75;5088805;28;20055;-71
2021/09/24 08:25:44;;;;;;;10.55;5.10;;;;;;;19.76;53.23;96587.78;5089753;28;20514;-71
2021/09/24 08:28:11;;;;;;;7.90;4.85;;;;;;;19.76;52.69;96576.75;5088937;28;20055;-72
2021/09/24 08:30:39;;;;;;;6.88;4.93;;;;;;;19.91;52.51;96584.06;5089636;28;20541;-72
2021/09/24 08:33:06;;;;;;;7.03;4.80;;;;;;;19.78;52.00;96577.16;5089573;28;20059;-72
2021/09/24 08:35:33;;;;;;;8.07;4.35;;;;;;;19.53;54.34;96580.31;5089974;28;20052;-72
2021/09/24 08:38:00;;;;;;;6.60;4.85;;;;;;;19.80;53.41;96588.66;5090129;28;20052;-72
2021/09/24 08:40:29;;;;;;;6.78;4.60;;;;;;;20.40;52.68;96594.19;5089310;28;20044;-72
2021/09/24 08:42:56;;;;;;;8.73;4.68;;;;;;;20.42;51.31;96589.09;5089740;28;20487;-72
2021/09/24 08:45:26;;;;;;;8.68;4.43;;;;;;;20.60;51.07;96586.56;5088597;28;20415;-72
2021/09/24 08:47:55;;;;;;;7.57;4.50;;;;;;;20.73;51.00;96587.91;5090057;28;20055;-72
2021/09/24 08:50:22;;;;;;;8.48;4.60;;;;;;;20.94;50.18;96590.13;5087774;28;20075;-72
2021/09/24 08:52:48;;;;;;;6.35;4.32;;;;;;;20.69;51.20;96578.78;5089342;28;20044;-72
2021/09/24 08:55:15;;;;;;;5.93;4.13;;;;;;;20.53;51.50;96584.53;5088866;28;20051;-72
2021/09/24 08:57:42;;;;;;;9.00;3.97;;;;;;;20.81;52.12;96578.50;5088698;28;20052;-73
2021/09/24 09:00:12;;;;;;;5.60;3.97;;;;;;;20.98;50.65;96579.84;5089007;28;20048;-72
2021/09/24 09:02:56;;;;;;;8.68;4.10;;;;;;;20.56;53.05;96580.97;5088441;28;20059;-72
2021/09/24 09:05:27;;;;;;;7.07;4.72;;;;;;;20.34;51.60;96573.59;5086520;28;20059;-73
2021/09/24 09:08:06;;;;;;;6.30;4.43;;;;;;;20.12;52.42;96580.00;5087983;28;20056;-72
2021/09/24 09:10:39;;;;;;;7.82;5.00;;;;;;;19.76;52.99;96571.22;5088976;28;20055;-73
2021/09/24 09:13:07;;;;;;;;;;;;;;;19.45;54.60;96566.75;5089040;28;20063;-72
2021/09/24 09:15:34;;;;;;;9.82;5.20;;;;;;;19.07;55.60;96573.22;5088372;28;19924;-72
2021/09/24 09:18:01;;;;;;;7.57;4.80;;;;;;;18.94;56.86;96581.66;5088162;28;20052;-72
2021/09/24 09:20:30;;;;;;;6.88;5.00;;;;;;;19.00;56.30;96574.72;5087580;28;20051;-72
2021/09/24 09:23:08;;;;;;;6.97;4.97;;;;;;;19.13;57.18;96566.25;5089288;28;20044;-72
2021/09/24 09:25:37;;;;;;;8.25;4.75;;;;;;;19.49;54.74;96568.41;5088477;28;20059;-72
2021/09/24 09:28:07;;;;;;;9.20;5.32;;;;;;;20.00;53.65;96567.22;5088843;28;20514;-72
2021/09/24 09:30:35;;;;;;;7.13;4.38;;;;;;;19.95;51.98;96565.56;5088657;28;20039;-73
2021/09/24 09:33:08;;;;;;;7.78;4.50;;;;;;;19.94;52.82;96565.94;5088763;28;20133;-72
2021/09/24 09:35:37;;;;;;;8.80;5.05;;;;;;;20.10;53.25;96563.81;5088920;28;20044;-73
2021/09/24 09:38:04;;;;;;;9.85;5.07;;;;;;;20.13;52.11;96565.00;5087725;28;20498;-72
2021/09/24 09:40:30;;;;;;;6.80;4.70;;;;;;;20.21;51.67;96558.41;5088979;28;20052;-72
2021/09/24 09:42:57;;;;;;;6.93;4.43;;;;;;;20.16;52.28;96565.06;5087621;28;20055;-73
2021/09/24 09:45:27;;;;;;;7.90;5.00;;;;;;;20.31;51.56;96549.47;5088477;28;20109;-72
2021/09/24 09:47:54;;;;;;;7.25;4.88;;;;;;;20.22;51.02;96548.94;5088088;28;20044;-73
2021/09/24 09:50:24;;;;;;;8.00;4.55;;;;;;;20.16;51.86;96555.97;5087845;28;20055;-73
2021/09/24 09:53:10;;;;;;;7.65;4.57;;;;;;;20.19;49.85;96549.69;5088130;28;20052;-73
2021/09/24 09:55:38;;;;;;;9.45;5.60;;;;;;;20.16;51.42;96550.44;5087874;28;20059;-73
2021/09/24 09:58:08;;;;;;;8.55;4.40;;;;;;;20.28;51.08;96552.97;5087932;28;20052;-73
2021/09/24 10:00:37;;;;;;;15.95;6.38;;;;;;;20.36;49.14;96549.13;5087875;28;20574;-72
2021/09/24 10:03:06;;;;;;;16.60;5.50;;;;;;;20.27;51.48;96537.56;5088567;28;20457;-72
2021/09/24 10:05:36;;;;;;;10.63;4.60;;;;;;;20.27;51.21;96545.84;5087728;28;20043;-72
2021/09/24 10:08:21;;;;;;;16.80;5.57;;;;;;;20.27;50.17;96540.31;5088239;28;20051;-73
2021/09/24 10:10:57;;;;;;;21.13;6.65;;;;;;;20.32;51.20;96537.22;5087674;28;20044;-75
2021/09/24 10:13:23;;;;;;;20.17;6.68;;;;;;;20.29;50.28;96541.53;5086907;28;20079;-73
2021/09/24 10:15:50;;;;;;;15.43;5.50;;;;;;;20.37;49.37;96538.84;5088347;28;20055;-73
2021/09/24 10:18:17;;;;;;;23.83;6.35;;;;;;;20.22;50.07;96532.34;5086947;28;20519;-72
2021/09/24 10:20:45;;;;;;;14.93;6.13;;;;;;;20.26;49.72;96528.47;5087650;28;20055;-72
2021/09/24 10:23:12;;;;;;;6.53;4.30;;;;;;;20.36;50.91;96537.25;5086758;28;20052;-72
2021/09/24 10:25:40;;;;;;;6.32;4.32;;;;;;;20.25;49.66;96537.13;5088194;28;20052;-72
2021/09/24 10:28:10;;;;;;;7.63;4.22;;;;;;;20.26;49.83;96533.19;5085564;28;20526;-72
2021/09/24 10:30:37;;;;;;;6.40;3.80;;;;;;;20.20;49.32;96524.44;5087925;28;20135;-72
2021/09/24 10:33:07;;;;;;;8.65;4.15;;;;;;;20.04;50.27;96524.63;5087330;28;20067;-72
2021/09/24 10:35:50;;;;;;;14.93;5.32;;;;;;;20.11;50.32;96528.66;5087282;28;20131;-72
2021/09/24 10:38:18;;;;;;;8.30;4.35;;;;;;;20.04;50.48;96521.06;5087108;28;20052;-71
2021/09/24 10:40:57;;;;;;;11.02;4.63;;;;;;;20.02;51.16;96515.91;5086793;28;20048;-72
2021/09/24 10:43:23;;;;;;;7.45;4.50;;;;;;;20.13;50.86;96520.78;5086809;28;20052;-72
2021/09/24 10:45:50;;;;;;;9.00;4.03;;;;;;;20.24;51.63;96516.16;5085737;28;20048;-72
2021/09/24 10:48:18;;;;;;;9.50;5.45;;;;;;;20.26;50.33;96516.59;5086341;28;20048;-72
2021/09/24 10:51:05;;;;;;;9.35;6.32;;;;;;;20.01;50.91;96519.06;5086827;28;20534;-72
2021/09/24 10:53:43;;;;;;;9.82;5.30;;;;;;;20.00;51.48;96515.50;5087044;28;20608;-72
2021/09/24 10:56:30;;;;;;;6.18;4.50;;;;;;;20.12;49.80;96516.44;5087461;28;20051;-73
2021/09/24 10:58:58;;;;;;;7.35;4.60;;;;;;;20.05;49.26;96512.41;5086700;28;20055;-72
2021/09/24 11:01:39;;;;;;;8.50;4.72;;;;;;;20.00;49.39;96509.97;5087303;28;20048;-72
2021/09/24 11:04:14;;;;;;;7.47;3.90;;;;;;;20.04;50.48;96499.72;5086287;28;20131;-72
2021/09/24 11:06:44;;;;;;;6.80;4.18;;;;;;;20.10;49.59;96503.00;5087517;28;20067;-72
2021/09/24 11:09:13;;;;;;;11.07;4.68;;;;;;;20.15;50.65;96504.59;5087108;28;20054;-71
2021/09/24 11:11:42;;;;;;;9.38;4.28;;;;;;;20.15;51.10;96499.06;5086774;28;20055;-72
2021/09/24 11:14:30;;;;;;;6.95;4.40;;;;;;;20.18;50.12;96493.59;5087174;28;20052;-72
2021/09/24 11:16:58;;;;;;;10.98;4.10;;;;;;;20.35;50.25;96494.97;5086820;28;20051;-72
2021/09/24 11:19:30;;;;;;;6.13;4.03;;;;;;;20.30;49.84;96490.56;5086493;28;20518;-72
2021/09/24 11:22:18;;;;;;;10.60;4.20;;;;;;;20.29;49.32;96488.19;5086536;28;20055;-72
2021/09/24 11:24:48;;;;;;;5.90;4.65;;;;;;;20.26;50.12;96488.97;5086839;28;20048;-72
2021/09/24 11:27:17;;;;;;;8.07;4.80;;;;;;;20.31;49.81;96491.38;5086929;28;20063;-72